createdAt,value
2023-02-11T00:00:20.495Z,19
2023-02-11T00:05:14.355Z,19
2023-02-11T00:10:22.176Z,19
2023-02-11T00:15:20.146Z,18.9
2023-02-11T00:20:14.163Z,18.9
2023-02-11T00:25:22.102Z,18.9
2023-02-11T00:30:18.053Z,18.9
2023-02-11T00:35:21.874Z,18.9
2023-02-11T00:40:18.067Z,18.9
2023-02-11T00:45:16.008Z,18.9
2023-02-11T00:50:21.879Z,18.8
2023-02-11T00:55:17.681Z,18.8
2023-02-11T01:00:16.678Z,18.8
2023-02-11T01:05:19.068Z,18.8
2023-02-11T01:10:18.268Z,18.8
2023-02-11T01:15:15.021Z,18.8
2023-02-11T01:20:13.788Z,18.8
2023-02-11T01:25:17.631Z,18.8
2023-02-11T01:30:16.689Z,18.8
2023-02-11T01:35:20.639Z,18.8
2023-02-11T01:40:20.497Z,18.8
2023-02-11T01:45:16.353Z,18.8
2023-02-11T01:50:18.106Z,18.7
2023-02-11T01:55:19.990Z,18.7
2023-02-11T02:00:21.929Z,18.7
2023-02-11T02:05:19.816Z,18.7
2023-02-11T02:10:19.640Z,18.7
2023-02-11T02:15:20.522Z,18.7
2023-02-11T02:20:18.352Z,18.7
2023-02-11T02:25:16.283Z,18.7
2023-02-11T02:30:22.205Z,18.7
2023-02-11T02:35:18.395Z,18.7
2023-02-11T02:40:14.269Z,18.7
2023-02-11T02:45:16.289Z,18.6
2023-02-11T02:50:20.205Z,18.6
2023-02-11T02:55:13.974Z,18.6
2023-02-11T03:00:19.856Z,18.6
2023-02-11T03:05:17.643Z,18.6
2023-02-11T03:10:18.457Z,18.6
2023-02-11T03:15:18.356Z,18.6
2023-02-11T03:20:16.265Z,18.6
2023-02-11T03:25:16.195Z,18.6
2023-02-11T03:30:24.180Z,18.6
2023-02-11T03:35:18.303Z,18.6
2023-02-11T03:40:20.237Z,18.6
2023-02-11T03:45:16.226Z,18.6
2023-02-11T03:50:18.036Z,18.6
2023-02-11T03:55:17.800Z,18.6
2023-02-11T04:00:15.660Z,18.6
2023-02-11T04:05:14.483Z,18.6
2023-02-11T04:10:24.523Z,18.5
2023-02-11T04:15:22.466Z,18.5
2023-02-11T04:20:18.436Z,18.5
2023-02-11T04:25:14.298Z,18.5
2023-02-11T04:30:18.063Z,18.5
2023-02-11T04:35:23.829Z,18.5
2023-02-11T04:40:15.812Z,18.5
2023-02-11T04:45:21.730Z,18.5
2023-02-11T04:50:14.500Z,18.5
2023-02-11T04:55:16.684Z,18.5
2023-02-11T05:00:14.575Z,18.5
2023-02-11T05:05:18.396Z,18.4
2023-02-11T05:10:14.159Z,18.4
2023-02-11T05:15:18.165Z,18.4
2023-02-11T05:20:18.011Z,18.4
2023-02-11T05:25:17.912Z,18.4
2023-02-11T05:30:15.665Z,18.5
2023-02-11T05:35:18.557Z,18.5
2023-02-11T05:40:20.282Z,18.5
2023-02-11T05:45:16.145Z,18.5
2023-02-11T05:50:15.894Z,18.5
2023-02-11T05:55:15.904Z,18.5
2023-02-11T06:00:15.743Z,18.5
2023-02-11T06:05:14.380Z,18.5
2023-02-11T06:10:16.228Z,18.5
2023-02-11T06:15:20.433Z,18.5
2023-02-11T06:20:18.490Z,18.5
2023-02-11T06:25:16.358Z,18.5
2023-02-11T06:30:18.755Z,18.5
2023-02-11T06:35:17.540Z,18.5
2023-02-11T06:40:16.349Z,18.5
2023-02-11T06:45:16.347Z,18.5
2023-02-11T06:50:16.284Z,18.6
2023-02-11T06:55:14.408Z,18.6
2023-02-11T07:00:18.696Z,18.6
2023-02-11T07:05:21.735Z,18.5
2023-02-11T07:10:17.736Z,18.5
2023-02-11T07:15:20.812Z,18.5
2023-02-11T07:20:15.677Z,18.6
2023-02-11T07:25:22.857Z,18.6
2023-02-11T07:30:20.561Z,18.6
2023-02-11T07:35:26.716Z,18.7
2023-02-11T07:40:16.724Z,18.7
2023-02-11T07:45:16.537Z,18.6
2023-02-11T07:50:28.488Z,18.6
2023-02-11T07:55:22.532Z,18.6
2023-02-11T08:00:14.449Z,18.6
2023-02-11T08:05:20.623Z,18.6
2023-02-11T08:10:20.826Z,18.6
2023-02-11T08:15:15.698Z,18.6
2023-02-11T08:20:15.507Z,18.6
2023-02-11T08:25:16.678Z,18.6
2023-02-11T08:30:16.506Z,18.6
2023-02-11T08:35:16.361Z,18.6
2023-02-11T08:40:16.511Z,18.6
2023-02-11T08:45:20.447Z,18.6
2023-02-11T08:50:18.325Z,18.7
2023-02-11T08:55:22.144Z,18.7
2023-02-11T09:00:24.085Z,18.7
2023-02-11T09:05:18.243Z,18.7
2023-02-11T09:10:14.089Z,18.7
2023-02-11T09:15:18.036Z,18.7
2023-02-11T09:20:13.839Z,18.7
2023-02-11T09:25:19.685Z,18.7
2023-02-11T09:30:16.507Z,18.7
2023-02-11T09:35:18.388Z,18.7
2023-02-11T09:40:14.328Z,18.7
2023-02-11T09:45:14.234Z,18.7
2023-02-11T09:50:18.235Z,18.7
2023-02-11T09:55:16.036Z,18.7
2023-02-11T10:00:16.057Z,18.7
2023-02-11T10:05:28.630Z,18.7
2023-02-11T10:10:16.442Z,18.7
2023-02-11T10:15:16.356Z,18.6
2023-02-11T10:20:16.763Z,18.7
2023-02-11T10:25:16.248Z,18.8
2023-02-11T10:30:16.198Z,18.8
2023-02-11T10:35:22.037Z,18.9
2023-02-11T10:40:18.078Z,18.9
2023-02-11T10:45:18.097Z,18.9
2023-02-11T10:50:22.854Z,19
2023-02-11T10:55:13.927Z,18.9
2023-02-11T11:00:13.769Z,18.9
2023-02-11T11:05:22.317Z,18.9
2023-02-11T11:10:14.038Z,19
2023-02-11T11:15:14.903Z,19
2023-02-11T11:20:20.890Z,19
2023-02-11T11:25:18.142Z,19
2023-02-11T11:30:14.044Z,19
2023-02-11T11:35:17.996Z,19
2023-02-11T11:40:13.815Z,19
2023-02-11T11:45:19.773Z,19
2023-02-11T11:50:13.613Z,19.1
2023-02-11T11:55:14.397Z,19.1
2023-02-11T12:00:16.325Z,19.1
2023-02-11T12:05:20.160Z,19.1
2023-02-11T12:10:19.981Z,19.1
2023-02-11T12:15:13.881Z,19.1
2023-02-11T12:20:15.691Z,19.2
2023-02-11T12:25:14.852Z,19.2
2023-02-11T12:30:15.778Z,19.2
2023-02-11T12:35:13.652Z,19.2
2023-02-11T12:40:18.435Z,19.3
2023-02-11T12:45:22.401Z,19.3
2023-02-11T12:50:16.219Z,19.3
2023-02-11T12:55:18.159Z,19.4
2023-02-11T13:00:14.008Z,19.4
2023-02-11T13:05:14.450Z,19.4
2023-02-11T13:10:24.311Z,19.5
2023-02-11T13:15:18.238Z,19.6
2023-02-11T13:20:14.283Z,19.6
2023-02-11T13:25:20.409Z,19.6
2023-02-11T13:30:17.947Z,19.7
2023-02-11T13:35:15.746Z,19.8
2023-02-11T13:40:15.606Z,19.8
2023-02-11T13:45:16.434Z,19.8
2023-02-11T13:50:16.527Z,19.8
2023-02-11T13:55:14.380Z,19.8
2023-02-11T14:00:16.371Z,19.8
2023-02-11T14:05:18.529Z,19.8
2023-02-11T14:10:16.735Z,19.8
2023-02-11T14:15:25.206Z,19.8
2023-02-11T14:20:16.394Z,19.8
2023-02-11T14:25:16.191Z,19.8
2023-02-11T14:30:16.386Z,19.8
2023-02-11T14:35:18.199Z,19.8
2023-02-11T14:40:18.411Z,19.8
2023-02-11T14:45:14.134Z,19.8
2023-02-11T14:50:23.808Z,19.8
2023-02-11T14:55:23.539Z,19.8
2023-02-11T15:00:17.501Z,19.8
2023-02-11T15:05:15.912Z,19.8
2023-02-11T15:10:23.866Z,19.8
2023-02-11T15:15:13.727Z,19.7
2023-02-11T15:20:19.519Z,19.7
2023-02-11T15:25:18.367Z,19.7
2023-02-11T15:30:20.531Z,19.7
2023-02-11T15:35:16.483Z,19.8
2023-02-11T15:40:18.411Z,19.7
2023-02-11T15:45:14.257Z,19.7
2023-02-11T15:50:28.145Z,19.7
2023-02-11T15:55:14.094Z,19.8
2023-02-11T16:00:18.209Z,19.8
2023-02-11T16:05:17.801Z,19.8
2023-02-11T16:10:24.247Z,19.8
2023-02-11T16:15:18.242Z,19.8
2023-02-11T16:20:14.289Z,19.8
2023-02-11T16:25:20.280Z,19.7
2023-02-11T16:30:20.432Z,19.7
2023-02-11T16:35:20.367Z,19.7
2023-02-11T16:40:16.196Z,19.7
2023-02-11T16:45:20.252Z,19.7
2023-02-11T16:50:16.104Z,19.6
2023-02-11T16:55:21.844Z,19.7
2023-02-11T17:00:24.448Z,19.7
2023-02-11T17:05:22.447Z,19.7
2023-02-11T17:10:14.215Z,19.7
2023-02-11T17:15:22.730Z,19.8
2023-02-11T17:20:17.530Z,19.8
2023-02-11T17:25:16.396Z,19.8
2023-02-11T17:30:23.392Z,19.8
2023-02-11T17:35:18.116Z,19.8
2023-02-11T17:40:15.962Z,19.8
2023-02-11T17:45:22.239Z,19.8
2023-02-11T17:50:16.386Z,19.8
2023-02-11T17:55:18.170Z,19.9
2023-02-11T18:00:20.014Z,19.9
2023-02-11T18:05:21.092Z,19.9
2023-02-11T18:10:20.230Z,19.9
2023-02-11T18:15:14.115Z,19.9
2023-02-11T18:20:15.988Z,19.9
2023-02-11T18:25:15.803Z,19.9
2023-02-11T18:30:19.793Z,19.9
2023-02-11T18:35:15.723Z,19.9
2023-02-11T18:40:22.520Z,19.9
2023-02-11T18:45:14.444Z,19.9
2023-02-11T18:50:20.240Z,19.9
2023-02-11T18:55:18.088Z,19.8
2023-02-11T19:00:13.868Z,19.8
2023-02-11T19:05:15.676Z,19.8
2023-02-11T19:10:18.620Z,19.8
2023-02-11T19:15:14.553Z,19.8
2023-02-11T19:20:18.351Z,19.8
2023-02-11T19:25:14.121Z,19.8
2023-02-11T19:30:16.027Z,19.8
2023-02-11T19:35:16.116Z,19.8
2023-02-11T19:40:17.962Z,19.8
2023-02-11T19:45:17.909Z,19.8
2023-02-11T19:50:21.660Z,19.8
2023-02-11T19:55:16.819Z,19.7
2023-02-11T20:00:15.942Z,19.7
2023-02-11T20:05:17.642Z,19.7
2023-02-11T20:10:20.573Z,19.7
2023-02-11T20:15:20.459Z,19.6
2023-02-11T20:20:24.369Z,19.6
2023-02-11T20:25:14.118Z,19.6
2023-02-11T20:30:16.065Z,19.6
2023-02-11T20:35:19.873Z,19.6
2023-02-11T20:40:17.590Z,19.6
2023-02-11T20:45:24.522Z,19.5
2023-02-11T20:50:18.352Z,19.5
2023-02-11T20:55:16.144Z,19.5
2023-02-11T21:00:14.374Z,19.5
2023-02-11T21:05:16.313Z,19.5
2023-02-11T21:10:14.352Z,19.5
2023-02-11T21:15:14.344Z,19.5
2023-02-11T21:20:18.444Z,19.4
2023-02-11T21:25:16.694Z,19.4
2023-02-11T21:30:16.527Z,19.4
2023-02-11T21:35:16.494Z,19.3
2023-02-11T21:40:16.294Z,19.3
2023-02-11T21:45:16.091Z,19.3
2023-02-11T21:50:17.902Z,19.3
2023-02-11T21:55:15.760Z,19.3
2023-02-11T22:00:15.631Z,19.3
2023-02-11T22:05:15.159Z,19.3
2023-02-11T22:10:13.972Z,19.3
2023-02-11T22:15:15.920Z,19.3
2023-02-11T22:20:21.912Z,19.3
2023-02-11T22:25:19.780Z,19.3
2023-02-11T22:30:19.874Z,19.2
2023-02-11T22:35:15.684Z,19.2
2023-02-11T22:40:16.520Z,19.2
2023-02-11T22:45:16.447Z,19.2
2023-02-11T22:50:14.255Z,19.2
2023-02-11T22:55:14.440Z,19.2
2023-02-11T23:00:22.326Z,19.1
2023-02-11T23:05:14.257Z,19.1
2023-02-11T23:10:16.197Z,19.1
2023-02-11T23:15:16.666Z,19.1
2023-02-11T23:20:18.664Z,19.1
2023-02-11T23:25:20.353Z,19.1
2023-02-11T23:30:20.378Z,19
2023-02-11T23:35:16.242Z,19
2023-02-11T23:40:18.038Z,19
2023-02-11T23:45:13.927Z,19
2023-02-11T23:50:15.790Z,19
2023-02-11T23:55:19.738Z,19
